You are listening to:
RJAA Tower #1 - Tokyo, Japan

RJAA 231130Z 07008KT 020V100 9999 FEW015 BKN060 16/13 Q1018 BECMG 05005KT

If stream doesn't start automatically press the play button
If stream stops then reload player then press play